Ngurah Rai (Bali) International Airport
WADD : now visible

Airfield :











YOU CAN JOIN US ON...

 
LOGIN :

Register | Disclaimer

   EN    FR    IT 

 









Legend :    VFR   Marginal VFR   IFR   Intensive IFR   Very Intensive IFR
Visi :
Ceiling :
>= 8 km
>= 3000ft
5 to 8 km
1000 to 3000 ft
1500m to 5 km
500 to 1000 ft
800 to 1500m
200 to 500 ft
< 800m
< 200 ft
Symbols :   Thunderstorms  Fog  Heavy snow  Heavy precipitations  Wind > 20 kt







- Airport Elevation : 14 ft
- IATA code : DPS


WADD - Ngurah Rai (Bali) International

CURRENT METAR :
  • 161300Z 12008KT 9999 FEW017 26/24 Q1013 NOSIG

EXPIRED METARs :
  • 161230Z 12008KT 9999 FEW017 26/24 Q1013 NOSIG
  • 161200Z 12008KT 9999 FEW017 26/22 Q1013 NOSIG
  • 161130Z 12009KT 9999 FEW017 26/23 Q1012 NOSIG
  • 161100Z 11010KT 9999 FEW017 26/23 Q1012 NOSIG
  • 161030Z 11010KT 9999 FEW017 27/23 Q1012 NOSIG

TAF TAF WADD
Valid from the 16 at 12:00 until the 17 at 12:00 UTC


161100Z 1612/1712 10008KT 9999 SCT016
TEMPO 1620/1700 BKN015
BECMG 1700/1702 11015KT
WAAF FIR / Asia



MET'MAP, your aeronautical weather chart ! - Copyright ORBIFLY December 2007 - Disclaimer

ORBIFLY MET'MAP TEAM :

Programming & Development : Alexandra Zaïnal
Concept & Development : Baudouin d'Aumeries
Co-Development & Prog : Marc-Olivier Méhu
Technical & hardware support : Manuel Goepfert

Contact : metmap@orbifly.com




SOURCES & CREDITS :

   NOAA       Earth
Advisory